Time;durP1;ratioP1;P1;durP2;ratioP2;P2;SDS_P1;SDS_P2;PMS_P1;PMS_P2;Temp;Humidity;BMP_temperature;BMP_pressure;BME280_temperature;BME280_humidity;BME280_pressure;Samples;Min_cycle;Max_cycle;Signal;HPM_P1;HPM_P2
2023/07/14 00:01:29;;;;;;;2.57;1.90;;;;;;;18.00;98.46;100518.41;5061685;28;20637;-75
2023/07/14 00:03:56;;;;;;;2.07;1.70;;;;;;;17.94;98.72;100502.91;5062462;28;20190;-76
2023/07/14 00:06:22;;;;;;;1.67;1.47;;;;;;;17.90;98.15;100503.91;5057991;28;20244;-75
2023/07/14 00:08:47;;;;;;;2.13;1.83;;;;;;;17.86;98.10;100504.91;5052204;28;20301;-75
2023/07/14 00:11:21;;;;;;;2.87;1.80;;;;;;;17.80;98.05;100506.00;5061726;28;20193;-75
2023/07/14 00:13:49;;;;;;;3.03;1.57;;;;;;;17.72;97.17;100508.88;5057858;28;20209;-75
2023/07/14 00:16:25;;;;;;;2.67;1.73;;;;;;;17.63;96.71;100498.75;5064675;28;20188;-75
2023/07/14 00:18:51;;;;;;;2.90;2.03;;;;;;;17.56;96.50;100505.09;5068505;28;20216;-76
2023/07/14 00:21:23;;;;;;;3.03;1.90;;;;;;;17.48;96.84;100494.88;5054606;28;20189;-76
2023/07/14 00:23:49;;;;;;;3.10;1.83;;;;;;;17.45;96.76;100489.78;5059791;28;20189;-76
2023/07/14 00:26:19;;;;;;;2.03;1.83;;;;;;;17.45;97.44;100495.88;5059421;28;20218;-75
2023/07/14 00:28:45;;;;;;;2.27;2.07;;;;;;;17.44;98.50;100493.31;5058283;28;20213;-76
2023/07/14 00:31:16;;;;;;;1.67;1.57;;;;;;;17.44;98.80;100490.69;5056432;28;20208;-75
2023/07/14 00:33:43;;;;;;;2.60;1.70;;;;;;;17.40;99.32;100487.31;5056182;28;20299;-75
2023/07/14 00:36:10;;;;;;;2.70;1.93;;;;;;;17.37;99.49;100490.06;5057994;28;20253;-74
2023/07/14 00:38:35;;;;;;;2.00;1.80;;;;;;;17.33;100.00;100484.03;5059161;28;20244;-75
2023/07/14 00:41:01;;;;;;;2.63;2.10;;;;;;;17.30;100.00;100486.78;5055187;28;20290;-75
2023/07/14 00:43:29;;;;;;;2.20;2.00;;;;;;;17.28;100.00;100487.72;5056912;28;20200;-75
2023/07/14 00:45:56;;;;;;;3.40;2.03;;;;;;;17.24;99.98;100494.84;5058402;28;20210;-76
2023/07/14 00:48:24;;;;;;;1.80;1.70;;;;;;;17.19;99.65;100497.59;5058994;28;20210;-75
2023/07/14 00:50:54;;;;;;;3.07;1.97;;;;;;;17.12;99.41;100495.25;5054084;28;20190;-76
2023/07/14 00:53:27;;;;;;;3.30;2.30;;;;;;;17.05;99.48;100500.66;5054000;28;20218;-76
2023/07/14 00:56:12;;;;;;;4.00;1.83;;;;;;;16.98;99.05;100493.94;5059105;28;20678;-75
2023/07/14 00:58:39;;;;;;;2.23;1.90;;;;;;;16.92;99.76;100484.50;5056837;28;20214;-75
2023/07/14 01:01:10;;;;;;;3.67;2.20;;;;;;;16.86;99.69;100483.84;5054336;28;20238;-75
2023/07/14 01:03:39;;;;;;;2.10;1.90;;;;;;;16.83;99.91;100486.56;5060464;28;20201;-75
2023/07/14 01:06:11;;;;;;;3.07;1.60;;;;;;;16.78;99.76;100473.63;5055581;28;20211;-77
2023/07/14 01:08:46;;;;;;;2.13;1.90;;;;;;;16.77;100.00;100469.31;5059887;28;20306;-77
2023/07/14 01:11:11;;;;;;;2.70;2.10;;;;;;;16.78;100.00;100468.41;5059887;28;20193;-76
2023/07/14 01:13:37;;;;;;;4.90;2.60;;;;;;;16.84;100.00;100472.59;5065252;28;20229;-76
2023/07/14 01:16:03;;;;;;;3.03;2.00;;;;;;;16.85;100.00;100467.28;5060408;28;20544;-76
2023/07/14 01:18:29;;;;;;;2.10;1.70;;;;;;;16.87;100.00;100469.84;5065021;28;20239;-77
2023/07/14 01:20:54;;;;;;;3.43;2.03;;;;;;;16.81;100.00;100463.06;5061884;28;20679;-77
2023/07/14 01:23:25;;;;;;;2.00;1.60;;;;;;;16.75;100.00;100463.28;5060665;28;20182;-77
2023/07/14 01:25:53;;;;;;;2.73;1.97;;;;;;;16.69;99.70;100466.06;5066527;28;20564;-76
2023/07/14 01:28:19;;;;;;;1.93;1.70;;;;;;;16.68;100.00;100459.13;5067101;28;20198;-76
2023/07/14 01:30:45;;;;;;;2.30;2.10;;;;;;;16.68;100.00;100469.59;5066926;28;20194;-76
2023/07/14 01:33:16;;;;;;;2.90;1.93;;;;;;;16.67;100.00;100470.50;5059436;28;20220;-76
2023/07/14 01:35:46;;;;;;;3.90;2.00;;;;;;;16.60;100.00;100462.00;5059581;28;20758;-75
2023/07/14 01:38:12;;;;;;;2.17;1.80;;;;;;;16.55;100.00;100458.69;5058093;28;20601;-76
2023/07/14 01:40:39;;;;;;;2.40;1.83;;;;;;;16.51;100.00;100470.13;5063762;28;20225;-76
2023/07/14 01:43:06;;;;;;;1.73;1.60;;;;;;;16.48;100.00;100467.59;5055024;28;20190;-76
2023/07/14 01:45:41;;;;;;;2.83;2.00;;;;;;;16.44;100.00;100466.84;5063511;28;20886;-76
2023/07/14 01:48:11;;;;;;;2.17;1.80;;;;;;;16.40;100.00;100466.09;5062666;28;20178;-76
2023/07/14 01:50:41;;;;;;;2.53;2.30;;;;;;;16.37;100.00;100471.41;5062043;28;20351;-76
2023/07/14 01:53:15;;;;;;;3.10;1.77;;;;;;;16.33;100.00;100464.56;5062795;28;20190;-75
2023/07/14 01:55:42;;;;;;;3.40;1.73;;;;;;;16.29;100.00;100471.63;5059912;28;20184;-76
2023/07/14 01:58:14;;;;;;;1.67;1.57;;;;;;;16.27;100.00;100467.34;5064729;28;20207;-76
2023/07/14 02:00:41;;;;;;;2.20;1.90;;;;;;;16.26;100.00;100474.34;5059288;28;20708;-76
2023/07/14 02:03:11;;;;;;;2.07;1.80;;;;;;;16.28;100.00;100469.91;5059379;28;20204;-76
2023/07/14 02:05:38;;;;;;;3.00;2.10;;;;;;;16.24;100.00;100470.06;5068809;28;20190;-76
2023/07/14 02:08:10;;;;;;;2.77;1.73;;;;;;;16.18;100.00;100468.50;5060545;28;20211;-76
2023/07/14 02:10:35;;;;;;;1.83;1.70;;;;;;;16.12;100.00;100466.88;5061446;28;20553;-76
2023/07/14 02:13:02;;;;;;;2.77;1.50;;;;;;;16.09;100.00;100468.75;5061374;28;20642;-76
2023/07/14 02:15:31;;;;;;;1.83;1.70;;;;;;;16.08;100.00;100470.50;5058280;28;20221;-75
2023/07/14 02:17:57;;;;;;;1.70;1.60;;;;;;;16.07;100.00;100471.41;5062782;28;20185;-76
2023/07/14 02:20:32;;;;;;;3.07;1.73;;;;;;;16.09;100.00;100472.22;5060921;28;20251;-75
2023/07/14 02:23:01;;;;;;;2.10;1.90;;;;;;;16.12;100.00;100468.66;5064252;28;20190;-76
2023/07/14 02:25:32;;;;;;;1.80;1.70;;;;;;;16.14;100.00;100478.16;5067116;28;20186;-76
2023/07/14 02:27:57;;;;;;;2.60;1.93;;;;;;;16.16;100.00;100472.91;5060296;28;20277;-76
2023/07/14 02:30:26;;;;;;;1.77;1.63;;;;;;;16.15;100.00;100471.19;5062310;28;20288;-75
2023/07/14 02:32:55;;;;;;;1.83;1.70;;;;;;;16.13;100.00;100473.81;5061067;28;20193;-76
2023/07/14 02:36:05;;;;;;;2.00;1.80;;;;;;;16.12;100.00;100466.88;5062527;28;20193;-77
2023/07/14 02:38:30;;;;;;;2.00;1.73;;;;;;;16.13;100.00;100459.94;5061400;28;20300;-76
2023/07/14 02:41:16;;;;;;;2.27;1.63;;;;;;;16.11;100.00;100453.91;5061578;28;20646;-75
2023/07/14 02:43:44;;;;;;;1.90;1.73;;;;;;;16.04;98.65;100452.34;5059718;28;20185;-76
2023/07/14 02:46:20;;;;;;;2.30;1.87;;;;;;;15.98;98.55;100454.25;5060223;28;20205;-76
2023/07/14 02:48:48;;;;;;;1.93;1.80;;;;;;;15.98;99.77;100450.78;5051700;28;20708;-76
2023/07/14 02:51:14;;;;;;;2.90;1.97;;;;;;;15.98;100.00;100456.00;5058041;28;20190;-76
2023/07/14 02:53:39;;;;;;;2.13;1.93;;;;;;;15.99;100.00;100449.88;5061745;28;20223;-75
2023/07/14 02:56:05;;;;;;;2.30;2.00;;;;;;;15.97;100.00;100447.31;5058744;28;20201;-76
2023/07/14 02:58:31;;;;;;;2.77;1.93;;;;;;;15.95;100.00;100443.91;5057408;28;20194;-76
2023/07/14 03:00:56;;;;;;;2.33;1.90;;;;;;;15.93;100.00;100444.84;5068184;28;20247;-76
2023/07/14 03:03:22;;;;;;;2.93;2.13;;;;;;;15.91;100.00;100447.47;5060033;28;20206;-76
2023/07/14 03:05:49;;;;;;;2.30;2.00;;;;;;;15.90;100.00;100443.16;5065153;28;20240;-76
2023/07/14 03:08:17;;;;;;;1.90;1.80;;;;;;;15.90;100.00;100450.16;5059941;28;20185;-76
2023/07/14 03:10:44;;;;;;;2.27;1.90;;;;;;;15.88;100.00;100444.13;5061214;28;20191;-76
2023/07/14 03:13:10;;;;;;;3.03;1.97;;;;;;;15.84;100.00;100446.78;5065793;28;20683;-77
2023/07/14 03:15:35;;;;;;;2.63;1.93;;;;;;;15.80;100.00;100437.34;5056650;28;20235;-76
2023/07/14 03:18:01;;;;;;;2.33;2.00;;;;;;;15.79;100.00;100442.59;5058096;28;20190;-76
2023/07/14 03:20:26;;;;;;;3.40;1.90;;;;;;;15.75;100.00;100436.59;5057052;28;20261;-76
2023/07/14 03:22:52;;;;;;;2.43;1.70;;;;;;;15.74;100.00;100431.41;5062865;28;20271;-76
2023/07/14 03:25:18;;;;;;;2.47;2.10;;;;;;;15.72;100.00;100430.63;5067962;28;20909;-76
2023/07/14 03:27:45;;;;;;;3.57;2.10;;;;;;;15.72;100.00;100431.47;5084192;28;20307;-76
2023/07/14 03:30:11;;;;;;;2.30;2.10;;;;;;;15.66;100.00;100435.09;5062459;28;20217;-76
2023/07/14 03:32:37;;;;;;;1.93;1.67;;;;;;;15.69;100.00;100431.53;5062053;28;20780;-76
2023/07/14 03:35:02;;;;;;;3.03;2.20;;;;;;;15.74;100.00;100427.06;5057528;28;20211;-76
2023/07/14 03:37:27;;;;;;;2.57;1.97;;;;;;;15.76;100.00;100427.00;5062255;28;20209;-76
2023/07/14 03:39:53;;;;;;;2.23;1.90;;;;;;;15.80;100.00;100429.50;5061280;28;20209;-76
2023/07/14 03:42:18;;;;;;;2.83;1.90;;;;;;;15.83;100.00;100425.94;5059532;28;20271;-75
2023/07/14 03:44:43;;;;;;;2.13;1.90;;;;;;;15.86;100.00;100433.72;5062690;28;20618;-76
2023/07/14 03:47:09;;;;;;;3.20;2.00;;;;;;;15.85;100.00;100432.88;5062080;28;20214;-76
2023/07/14 03:49:34;;;;;;;3.20;2.33;;;;;;;15.87;100.00;100435.44;5063058;28;20262;-76
2023/07/14 03:52:00;;;;;;;3.07;2.50;;;;;;;15.89;100.00;100428.41;5059006;28;20196;-76
2023/07/14 03:54:25;;;;;;;2.57;2.37;;;;;;;15.89;100.00;100431.00;5064797;28;20338;-77
2023/07/14 03:56:53;;;;;;;2.17;2.00;;;;;;;15.91;100.00;100433.59;5063723;28;20192;-76
2023/07/14 03:59:19;;;;;;;2.87;2.40;;;;;;;15.92;100.00;100430.94;5062005;28;20643;-77
2023/07/14 04:01:44;;;;;;;2.40;2.17;;;;;;;15.92;100.00;100424.88;5061343;28;20272;-76
2023/07/14 04:04:10;;;;;;;2.10;1.90;;;;;;;15.93;100.00;100423.97;5063370;28;20181;-76
2023/07/14 04:06:35;;;;;;;3.03;2.10;;;;;;;15.94;100.00;100423.91;5062084;28;20220;-77
2023/07/14 04:09:01;;;;;;;2.20;2.00;;;;;;;15.97;100.00;100422.97;5062620;28;20208;-76
2023/07/14 04:11:27;;;;;;;2.97;2.17;;;;;;;15.97;100.00;100409.91;5061559;28;20220;-75
2023/07/14 04:13:52;;;;;;;3.10;2.20;;;;;;;16.02;100.00;100407.19;5059191;28;20264;-77
2023/07/14 04:16:18;;;;;;;2.57;2.17;;;;;;;16.04;99.99;100406.22;5062044;28;20204;-76
2023/07/14 04:18:44;;;;;;;4.30;2.00;;;;;;;16.04;99.79;100401.00;5059771;28;20221;-75
2023/07/14 04:21:12;;;;;;;4.60;2.20;;;;;;;16.05;99.17;100394.88;5058543;28;20193;-76
2023/07/14 04:23:39;;;;;;;2.10;1.90;;;;;;;16.05;98.35;100394.88;5052012;28;20217;-77
2023/07/14 04:26:07;;;;;;;2.37;2.10;;;;;;;16.11;98.61;100388.63;5062344;28;20216;-76
2023/07/14 04:28:34;;;;;;;2.37;2.17;;;;;;;16.22;98.90;100388.31;5065183;28;20244;-76
2023/07/14 04:31:02;;;;;;;1.70;1.60;;;;;;;16.33;99.45;100396.66;5061462;28;20193;-76
2023/07/14 04:33:28;;;;;;;1.73;1.63;;;;;;;16.42;99.16;100395.50;5055628;28;20242;-76
2023/07/14 04:35:55;;;;;;;3.77;2.10;;;;;;;16.52;99.63;100394.31;5058066;28;20285;-76
2023/07/14 04:38:24;;;;;;;2.90;2.40;;;;;;;16.63;100.00;100399.19;5061324;28;20215;-77
2023/07/14 04:40:50;;;;;;;2.30;2.10;;;;;;;16.72;99.74;100404.09;5063396;28;20277;-75
2023/07/14 04:43:17;;;;;;;2.40;1.90;;;;;;;16.84;99.88;100400.25;5056425;28;20284;-75
2023/07/14 04:45:44;;;;;;;3.10;2.47;;;;;;;16.94;100.00;100400.78;5061535;28;20189;-77
2023/07/14 04:48:13;;;;;;;1.60;1.50;;;;;;;17.03;100.00;100399.66;5058940;28;20182;-76
2023/07/14 04:50:39;;;;;;;2.17;1.97;;;;;;;17.10;100.00;100395.06;5063901;28;20216;-76
2023/07/14 04:53:07;;;;;;;2.93;2.50;;;;;;;17.18;100.00;100390.41;5065267;28;20662;-76
2023/07/14 04:55:37;;;;;;;2.20;2.00;;;;;;;17.26;100.00;100384.91;5064732;28;20190;-75
2023/07/14 04:58:04;;;;;;;2.40;2.20;;;;;;;17.35;100.00;100393.31;5064226;28;20185;-76
2023/07/14 05:00:30;;;;;;;2.60;2.13;;;;;;;17.47;100.00;100392.00;5066696;28;20611;-76
2023/07/14 05:02:56;;;;;;;2.30;2.00;;;;;;;17.55;98.07;100386.50;5067181;28;20672;-76
2023/07/14 05:05:23;;;;;;;2.30;2.10;;;;;;;17.59;95.73;100389.84;5066619;28;20197;-76
2023/07/14 05:07:49;;;;;;;2.63;2.20;;;;;;;17.66;95.03;100386.13;5064396;28;20245;-76
2023/07/14 05:10:20;;;;;;;2.73;1.80;;;;;;;17.79;94.25;100382.13;5063012;28;20248;-76
2023/07/14 05:12:46;;;;;;;2.40;1.83;;;;;;;17.92;93.82;100390.34;5056382;28;20194;-76
2023/07/14 05:15:11;;;;;;;2.00;1.90;;;;;;;18.11;95.02;100385.31;5065595;28;20997;-76
2023/07/14 05:17:37;;;;;;;2.87;2.00;;;;;;;18.27;94.77;100385.56;5064593;28;20191;-75
2023/07/14 05:20:06;;;;;;;2.63;1.80;;;;;;;18.37;95.35;100387.84;5064035;28;20217;-76
2023/07/14 05:22:31;;;;;;;2.60;1.83;;;;;;;18.41;94.73;100384.16;5054767;28;20191;-76
2023/07/14 05:24:57;;;;;;;2.83;2.23;;;;;;;18.42;93.92;100378.00;5064044;28;20279;-76
2023/07/14 05:27:22;;;;;;;3.27;2.30;;;;;;;18.42;93.62;100388.47;5059978;28;20249;-76
2023/07/14 05:29:49;;;;;;;3.43;2.10;;;;;;;18.41;93.96;100381.53;5063012;28;20835;-76
2023/07/14 05:32:16;;;;;;;4.17;2.13;;;;;;;18.43;95.27;100383.19;5061117;28;20288;-75
2023/07/14 05:34:41;;;;;;;3.13;2.10;;;;;;;18.46;96.65;100391.81;5059836;28;20390;-76
2023/07/14 05:37:06;;;;;;;5.23;2.83;;;;;;;18.43;98.78;100384.94;5058129;28;20182;-76
2023/07/14 05:39:31;;;;;;;6.33;2.70;;;;;;;18.38;98.90;100376.41;5064528;28;20776;-75
2023/07/14 05:42:01;;;;;;;5.97;2.23;;;;;;;18.39;99.69;100381.59;5064115;28;20211;-75
2023/07/14 05:44:27;;;;;;;4.37;2.37;;;;;;;18.47;100.00;100388.28;5067824;28;20273;-76
2023/07/14 05:46:52;;;;;;;4.10;2.13;;;;;;;18.58;99.95;100391.34;5067561;28;20313;-76
2023/07/14 05:49:18;;;;;;;3.17;2.30;;;;;;;18.95;99.77;100389.00;5067475;28;20233;-75
2023/07/14 05:51:43;;;;;;;4.23;2.47;;;;;;;19.65;98.24;100390.31;5067188;28;20743;-76
2023/07/14 05:54:08;;;;;;;5.47;2.20;;;;;;;20.31;94.25;100377.66;5066198;28;20190;-76
2023/07/14 05:56:34;;;;;;;3.33;2.00;;;;;;;20.59;89.30;100368.41;5068465;28;20182;-76
2023/07/14 05:59:00;;;;;;;3.27;1.80;;;;;;;21.02;86.86;100368.91;5052614;28;20213;-76
2023/07/14 06:01:25;;;;;;;3.20;1.93;;;;;;;21.48;85.82;100370.88;5067831;28;20236;-76
2023/07/14 06:03:50;;;;;;;3.73;1.60;;;;;;;21.94;82.38;100369.34;5067443;28;20673;-76
2023/07/14 06:06:16;;;;;;;3.17;1.93;;;;;;;22.20;81.61;100359.16;5062418;28;20291;-77
2023/07/14 06:08:42;;;;;;;4.03;2.00;;;;;;;21.97;79.35;100366.56;5066910;28;20216;-76
2023/07/14 06:11:07;;;;;;;2.73;1.80;;;;;;;21.84;80.26;100357.63;5061713;28;20566;-76
2023/07/14 06:13:33;;;;;;;3.33;2.37;;;;;;;21.55;80.01;100350.38;5063944;28;20203;-76
2023/07/14 06:15:59;;;;;;;3.50;1.93;;;;;;;21.34;81.60;100340.97;5063619;28;20714;-76
2023/07/14 06:18:24;;;;;;;5.10;2.27;;;;;;;22.15;79.78;100340.09;5064229;28;20265;-76
2023/07/14 06:20:50;;;;;;;3.90;2.13;;;;;;;22.47;77.61;100343.56;5065446;28;20185;-77
2023/07/14 06:23:16;;;;;;;4.30;2.10;;;;;;;23.01;76.83;100343.94;5066656;28;20186;-76
2023/07/14 06:25:41;;;;;;;2.80;1.90;;;;;;;23.11;76.43;100345.94;5071399;28;20198;-76
2023/07/14 06:28:07;;;;;;;5.23;2.30;;;;;;;23.06;75.41;100340.13;5063016;28;20186;-76
2023/07/14 06:30:34;;;;;;;2.27;1.77;;;;;;;22.96;74.58;100336.31;5060659;28;20238;-77
2023/07/14 06:33:01;;;;;;;7.33;2.70;;;;;;;22.38;74.54;100341.44;5059446;28;20194;-76
2023/07/14 06:35:26;;;;;;;6.00;2.33;;;;;;;22.08;74.47;100336.97;5051921;28;20210;-76
2023/07/14 06:37:51;;;;;;;6.07;2.30;;;;;;;22.14;74.60;100327.88;5053722;28;20265;-76
2023/07/14 06:40:17;;;;;;;5.30;2.07;;;;;;;22.58;74.82;100321.84;5055826;28;20217;-76
2023/07/14 06:42:42;;;;;;;2.50;1.67;;;;;;;23.19;72.54;100319.09;5049922;28;20205;-75
2023/07/14 06:45:08;;;;;;;2.40;1.60;;;;;;;23.92;70.77;100316.34;5048839;28;20917;-75
2023/07/14 06:47:34;;;;;;;3.13;1.60;;;;;;;24.40;69.83;100316.75;5053557;28;20211;-75
2023/07/14 06:49:59;;;;;;;1.83;1.67;;;;;;;24.71;69.06;100313.88;5051315;28;20261;-75
2023/07/14 06:52:24;;;;;;;4.10;1.80;;;;;;;24.55;68.14;100308.75;5065797;28;20185;-75
2023/07/14 06:54:51;;;;;;;4.30;1.67;;;;;;;23.75;69.60;100313.84;5052788;28;20768;-74
2023/07/14 06:57:17;;;;;;;3.00;1.53;;;;;;;24.16;69.48;100308.66;5049072;28;20276;-76
2023/07/14 06:59:42;;;;;;;4.47;1.77;;;;;;;24.09;69.76;100313.50;5058968;28;20285;-76
2023/07/14 07:02:14;;;;;;;3.50;1.87;;;;;;;24.18;69.63;100318.19;5058532;28;20198;-74
2023/07/14 07:04:41;;;;;;;5.33;1.50;;;;;;;24.47;69.61;100314.53;5063714;28;20240;-75
2023/07/14 07:07:06;;;;;;;2.90;1.63;;;;;;;24.68;69.73;100320.19;5062380;28;20210;-75
2023/07/14 07:09:32;;;;;;;5.40;1.80;;;;;;;25.29;68.79;100322.22;5064298;28;20301;-75
2023/07/14 07:11:57;;;;;;;3.80;1.75;;;;;;;24.95;66.30;100314.84;5063745;28;20194;-75
2023/07/14 07:14:23;;;;;;;10.73;3.23;;;;;;;24.33;67.83;100315.47;5057111;28;20740;-78
2023/07/14 07:16:48;;;;;;;3.58;2.03;;;;;;;24.98;67.08;100311.13;5060570;28;21961;-74
2023/07/14 07:19:15;;;;;;;3.72;1.48;;;;;;;24.38;67.88;100305.44;5061221;28;20941;-76
2023/07/14 07:21:41;;;;;;;3.08;1.60;;;;;;;24.70;67.88;100301.59;5059158;28;20198;-75
2023/07/14 07:24:06;;;;;;;4.97;2.10;;;;;;;24.64;68.73;100305.50;5071483;28;20570;-75
2023/07/14 07:26:32;;;;;;;2.70;1.70;;;;;;;24.73;68.01;100310.19;5067466;28;20245;-76
2023/07/14 07:28:57;;;;;;;2.67;1.80;;;;;;;23.97;69.34;100303.72;5054532;28;20206;-77
2023/07/14 07:31:22;;;;;;;3.63;2.00;;;;;;;25.19;67.66;100303.47;5058319;28;20946;-77
2023/07/14 07:33:48;;;;;;;2.97;1.80;;;;;;;25.47;67.14;100306.88;5059068;28;20643;-74
2023/07/14 07:36:15;;;;;;;2.55;1.63;;;;;;;26.16;66.02;100295.69;5064505;28;20730;-76
2023/07/14 07:38:43;;;;;;;4.38;1.65;;;;;;;26.68;63.42;100291.84;5063435;28;20206;-77
2023/07/14 07:41:09;;;;;;;7.40;1.67;;;;;;;26.87;63.03;100283.31;5061259;28;20243;-77
2023/07/14 07:44:01;;;;;;;2.85;1.50;;;;;;;26.68;64.07;100279.44;5057196;28;20178;-74
2023/07/14 07:46:27;;;;;;;3.72;1.60;;;;;;;26.58;64.77;100276.66;5053857;28;20211;-75
2023/07/14 07:48:54;;;;;;;1.95;1.58;;;;;;;26.65;64.22;100284.13;5055736;28;20583;-74
2023/07/14 07:51:19;;;;;;;4.88;1.63;;;;;;;26.74;64.14;100291.38;5062860;28;20276;-75
2023/07/14 07:53:45;;;;;;;5.05;1.70;;;;;;;25.25;65.46;100281.88;5064050;28;20282;-75
2023/07/14 07:56:10;;;;;;;3.78;2.10;;;;;;;25.94;65.35;100272.53;5062198;28;20213;-75
2023/07/14 07:58:36;;;;;;;3.03;1.60;;;;;;;26.69;64.09;100267.00;5063053;28;20196;-75
2023/07/14 08:01:03;;;;;;;2.13;1.40;;;;;;;26.53;63.97;100259.38;5058266;28;20197;-76
2023/07/14 08:03:30;;;;;;;5.90;1.77;;;;;;;26.50;62.93;100263.09;5058359;28;20190;-75
2023/07/14 08:06:00;;;;;;;3.28;1.50;;;;;;;26.30;64.54;100262.84;5059809;28;20266;-74
2023/07/14 08:08:25;;;;;;;5.35;1.77;;;;;;;25.65;65.12;100254.34;5062849;28;20182;-75
2023/07/14 08:10:50;;;;;;;2.97;1.80;;;;;;;26.08;65.14;100252.97;5068936;28;20189;-75
2023/07/14 08:13:16;;;;;;;4.83;2.07;;;;;;;25.31;65.91;100248.78;5063733;28;20186;-75
2023/07/14 08:15:41;;;;;;;3.00;1.60;;;;;;;25.15;66.29;100251.72;5062557;28;20207;-76
2023/07/14 08:18:07;;;;;;;5.30;1.80;;;;;;;25.42;66.02;100240.94;5068244;28;20186;-75
2023/07/14 08:20:34;;;;;;;2.80;1.73;;;;;;;25.60;65.79;100245.88;5060583;28;20275;-75
2023/07/14 08:23:03;;;;;;;2.47;1.70;;;;;;;25.82;65.52;100245.13;5061679;28;20192;-76
2023/07/14 08:25:29;;;;;;;3.17;1.83;;;;;;;25.69;65.61;100247.88;5069582;28;20182;-75
2023/07/14 08:27:54;;;;;;;3.30;1.70;;;;;;;25.54;65.17;100241.03;5069829;28;20557;-75
2023/07/14 08:30:20;;;;;;;3.10;2.00;;;;;;;25.23;65.53;100240.56;5066943;28;20255;-75
2023/07/14 08:32:49;;;;;;;4.90;2.17;;;;;;;25.42;64.75;100253.34;5056069;28;20271;-76
2023/07/14 08:35:18;;;;;;;4.80;1.90;;;;;;;25.61;65.06;100238.78;5065310;28;20190;-76
2023/07/14 08:37:43;;;;;;;4.00;2.00;;;;;;;25.79;65.38;100253.31;5069330;28;20247;-76
2023/07/14 08:40:14;;;;;;;4.13;1.87;;;;;;;25.49;63.48;100251.09;5062748;28;20194;-76
2023/07/14 08:42:51;;;;;;;4.40;1.93;;;;;;;25.44;64.50;100242.63;5072907;28;20252;-75
2023/07/14 08:45:27;;;;;;;2.63;1.70;;;;;;;25.56;64.91;100250.56;5068619;28;20185;-76
2023/07/14 08:47:59;;;;;;;5.63;2.70;;;;;;;26.12;64.66;100251.78;5064505;28;20201;-75
2023/07/14 08:50:28;;;;;;;2.67;1.90;;;;;;;26.10;65.21;100245.72;5068161;28;20205;-75
2023/07/14 08:52:56;;;;;;;4.23;2.00;;;;;;;25.90;66.69;100249.03;5061033;28;20689;-76
2023/07/14 08:55:25;;;;;;;3.20;1.90;;;;;;;26.18;66.55;100250.47;5058635;28;20174;-76
2023/07/14 08:57:54;;;;;;;3.90;2.13;;;;;;;26.18;65.54;100247.81;5065399;28;20178;-76
2023/07/14 09:00:27;;;;;;;5.13;2.00;;;;;;;25.88;65.29;100249.13;5067652;28;20217;-75
2023/07/14 09:03:04;;;;;;;4.10;2.20;;;;;;;26.02;65.51;100248.13;5066003;28;20182;-76
2023/07/14 09:05:30;;;;;;;3.50;2.30;;;;;;;25.42;66.55;100248.06;5065997;28;20243;-76
2023/07/14 09:07:56;;;;;;;6.40;2.37;;;;;;;25.38;67.00;100243.91;5066330;28;21040;-76
2023/07/14 09:10:35;;;;;;;5.27;2.30;;;;;;;25.84;66.62;100239.72;5070460;28;20257;-75
2023/07/14 09:13:19;;;;;;;4.67;2.10;;;;;;;25.52;66.51;100242.94;5067187;28;20259;-76
2023/07/14 09:15:46;;;;;;;3.50;2.10;;;;;;;25.85;65.35;100234.31;5055096;28;20575;-76
2023/07/14 09:18:36;;;;;;;4.70;1.80;;;;;;;26.14;64.95;100241.09;5063572;28;20193;-75
2023/07/14 09:21:04;;;;;;;2.83;1.90;;;;;;;26.30;64.59;100231.00;5069900;28;20186;-76
2023/07/14 09:23:48;;;;;;;2.17;1.63;;;;;;;26.65;63.80;100231.91;5063314;28;20591;-77
2023/07/14 09:26:19;;;;;;;5.90;2.30;;;;;;;26.87;63.58;100232.88;5074965;28;20696;-76
2023/07/14 09:28:49;;;;;;;3.70;1.83;;;;;;;27.11;64.00;100229.25;5077560;28;20220;-75
2023/07/14 09:31:24;;;;;;;5.40;2.07;;;;;;;26.91;63.90;100226.38;5063338;28;20702;-76
2023/07/14 09:33:56;;;;;;;4.47;1.87;;;;;;;27.10;64.50;100225.75;5067107;28;20289;-75
2023/07/14 09:36:22;;;;;;;4.30;2.20;;;;;;;27.20;64.30;100221.41;5067897;28;20201;-77
2023/07/14 09:38:57;;;;;;;4.40;2.03;;;;;;;27.42;64.23;100218.81;5066655;28;20194;-76
2023/07/14 09:41:25;;;;;;;3.90;2.00;;;;;;;27.53;63.66;100216.16;5054960;28;20660;-75
2023/07/14 09:43:57;;;;;;;2.07;1.77;;;;;;;27.38;63.54;100208.44;5064475;28;20191;-75
2023/07/14 09:46:22;;;;;;;5.40;2.20;;;;;;;27.31;63.33;100206.41;5066967;28;20256;-76
2023/07/14 09:48:51;;;;;;;3.20;2.07;;;;;;;27.25;nan;100213.06;5068250;28;20205;-76
2023/07/14 09:51:23;;;;;;;2.90;2.03;;;;;;;27.45;64.30;100200.84;5068191;28;20182;-75
2023/07/14 09:53:59;;;;;;;3.83;2.00;;;;;;;27.47;63.71;100198.91;5067293;28;20210;-75
2023/07/14 09:56:29;;;;;;;3.87;2.17;;;;;;;27.66;63.04;100205.38;5067007;28;20182;-75
2023/07/14 09:59:01;;;;;;;2.83;1.80;;;;;;;27.91;62.62;100200.66;5068388;28;20202;-75
2023/07/14 10:01:29;;;;;;;2.13;1.47;;;;;;;28.03;62.37;100198.78;5081165;28;20299;-75
2023/07/14 10:03:58;;;;;;;2.27;1.63;;;;;;;28.10;62.22;100206.16;5069340;28;20259;-76
2023/07/14 10:06:27;;;;;;;3.80;2.00;;;;;;;28.27;61.47;100206.53;5062634;28;20210;-76
2023/07/14 10:09:13;;;;;;;5.03;1.87;;;;;;;28.32;62.08;100212.28;5062435;28;20228;-74
2023/07/14 10:11:40;;;;;;;6.33;2.23;;;;;;;27.98;63.23;100210.66;5060972;28;20182;-76
2023/07/14 10:14:35;;;;;;;3.70;2.10;;;;;;;28.28;61.12;100209.06;5066780;28;20185;-76
2023/07/14 10:17:03;;;;;;;2.60;1.87;;;;;;;28.19;60.44;100201.88;5052563;28;20186;-76
2023/07/14 10:19:39;;;;;;;3.83;1.70;;;;;;;28.04;59.93;100201.31;5064936;28;20753;-76
2023/07/14 10:22:17;;;;;;;4.63;2.10;;;;;;;28.45;60.85;100193.47;5065959;28;20182;-76
2023/07/14 10:24:47;;;;;;;2.00;1.60;;;;;;;28.68;61.79;100183.47;5055365;28;20294;-76
2023/07/14 10:27:19;;;;;;;2.63;1.80;;;;;;;28.72;60.92;100173.41;5065313;28;20206;-76
2023/07/14 10:29:50;;;;;;;4.73;2.00;;;;;;;28.39;60.16;100172.69;5064162;28;20210;-77
2023/07/14 10:32:47;;;;;;;2.77;1.80;;;;;;;28.38;60.72;100168.34;5069141;28;20190;-75
2023/07/14 10:35:25;;;;;;;3.60;2.00;;;;;;;27.69;59.84;100168.72;5058127;28;20229;-76
2023/07/14 10:38:19;;;;;;;3.93;2.10;;;;;;;27.83;59.21;100174.72;5064010;28;20174;-76
2023/07/14 10:41:03;;;;;;;3.57;2.00;;;;;;;27.88;59.25;100169.84;5062445;28;20225;-76
2023/07/14 10:43:44;;;;;;;3.13;1.70;;;;;;;28.35;59.82;100164.13;5054981;28;20707;-76
2023/07/14 10:46:17;;;;;;;2.23;1.63;;;;;;;28.55;58.48;100167.72;5062552;28;20237;-76
2023/07/14 10:48:47;;;;;;;3.03;1.73;;;;;;;28.64;58.24;100175.91;5064557;28;20611;-76
2023/07/14 10:51:24;;;;;;;1.87;1.60;;;;;;;29.01;58.64;100170.00;5066574;28;20194;-74
2023/07/14 10:53:58;;;;;;;2.63;1.50;;;;;;;29.06;57.37;100165.13;5062174;28;20240;-75
2023/07/14 10:56:32;;;;;;;5.47;2.17;;;;;;;28.82;56.73;100160.97;5059173;28;20725;-74
2023/07/14 10:59:15;;;;;;;5.17;2.20;;;;;;;27.60;58.07;100161.53;5054361;28;20205;-74
2023/07/14 11:02:05;;;;;;;3.77;1.73;;;;;;;27.73;58.03;100160.50;5064883;28;20251;-76
2023/07/14 11:04:37;;;;;;;2.50;1.60;;;;;;;28.31;57.42;100151.22;5063648;28;21094;-75
2023/07/14 11:07:05;;;;;;;3.03;1.80;;;;;;;28.63;56.98;100147.59;5054973;28;20205;-75
2023/07/14 11:09:31;;;;;;;2.63;1.60;;;;;;;28.93;57.21;100149.38;5060045;28;20203;-74
2023/07/14 11:12:08;;;;;;;3.07;1.90;;;;;;;28.63;56.72;100144.94;5064949;28;20200;-75
2023/07/14 11:14:46;;;;;;;2.17;1.73;;;;;;;28.77;56.88;100143.72;5061298;28;20189;-75
2023/07/14 11:17:30;;;;;;;5.70;2.20;;;;;;;28.56;57.49;100144.63;5065020;28;20278;-76
2023/07/14 11:20:03;;;;;;;2.43;1.77;;;;;;;28.42;57.41;100144.03;5061439;28;20225;-75
2023/07/14 11:22:33;;;;;;;3.35;2.03;;;;;;;29.13;57.92;100141.44;5065942;28;20280;-74
2023/07/14 11:25:20;;;;;;;2.87;1.70;;;;;;;29.53;57.88;100140.50;5068353;28;20257;-75
2023/07/14 11:28:14;;;;;;;3.80;1.70;;;;;;;29.48;56.99;100116.94;5072268;28;20198;-75
2023/07/14 11:30:43;;;;;;;5.53;2.00;;;;;;;28.43;57.71;100113.75;5056650;28;20209;-75